sensor_id;sensor_type;location;lat;lon;timestamp;pressure;altitude;pressure_sealevel;temperature;humidity
82222;BME280;71818;52.352;10.912;2024-01-30T00:00:36;101502.56;;;3.41;100.00
82222;BME280;71818;52.352;10.912;2024-01-30T00:03:11;101509.56;;;3.42;100.00
82222;BME280;71818;52.352;10.912;2024-01-30T00:05:36;101503.44;;;3.41;100.00
82222;BME280;71818;52.352;10.912;2024-01-30T00:08:39;101501.00;;;3.34;100.00
82222;BME280;71818;52.352;10.912;2024-01-30T00:11:05;101504.72;;;3.25;100.00
82222;BME280;71818;52.352;10.912;2024-01-30T00:13:39;101504.13;;;3.14;100.00
82222;BME280;71818;52.352;10.912;2024-01-30T00:25:54;101503.63;;;3.34;100.00
82222;BME280;71818;52.352;10.912;2024-01-30T00:32:07;101511.53;;;3.32;100.00
82222;BME280;71818;52.352;10.912;2024-01-30T00:34:38;101515.78;;;3.36;100.00
82222;BME280;71818;52.352;10.912;2024-01-30T00:40:49;101501.84;;;3.34;100.00
82222;BME280;71818;52.352;10.912;2024-01-30T00:43:31;101501.25;;;3.24;100.00
82222;BME280;71818;52.352;10.912;2024-01-30T00:46:05;101505.03;;;3.13;100.00
82222;BME280;71818;52.352;10.912;2024-01-30T00:48:31;101501.31;;;3.20;100.00
82222;BME280;71818;52.352;10.912;2024-01-30T00:50:59;101501.16;;;3.27;100.00
82222;BME280;71818;52.352;10.912;2024-01-30T00:53:26;101510.06;;;3.22;100.00
82222;BME280;71818;52.352;10.912;2024-01-30T00:56:20;101503.75;;;3.29;100.00
82222;BME280;71818;52.352;10.912;2024-01-30T01:02:15;101505.91;;;3.12;100.00
82222;BME280;71818;52.352;10.912;2024-01-30T01:05:05;101509.13;;;3.24;100.00
82222;BME280;71818;52.352;10.912;2024-01-30T01:07:42;101503.66;;;3.32;100.00
82222;BME280;71818;52.352;10.912;2024-01-30T01:13:52;101497.75;;;3.24;100.00
82222;BME280;71818;52.352;10.912;2024-01-30T01:16:35;101498.03;;;3.12;100.00
82222;BME280;71818;52.352;10.912;2024-01-30T01:19:05;101497.09;;;3.14;100.00
82222;BME280;71818;52.352;10.912;2024-01-30T01:21:45;101497.72;;;3.25;100.00
82222;BME280;71818;52.352;10.912;2024-01-30T01:37:55;101487.47;;;2.79;100.00
82222;BME280;71818;52.352;10.912;2024-01-30T01:47:10;101489.19;;;2.80;100.00
82222;BME280;71818;52.352;10.912;2024-01-30T01:49:39;101492.81;;;2.73;100.00
82222;BME280;71818;52.352;10.912;2024-01-30T01:52:49;101479.56;;;2.81;100.00
82222;BME280;71818;52.352;10.912;2024-01-30T01:58:13;101484.56;;;3.27;100.00
82222;BME280;71818;52.352;10.912;2024-01-30T02:01:18;101483.38;;;3.39;100.00
82222;BME280;71818;52.352;10.912;2024-01-30T02:03:47;101480.59;;;3.45;100.00
82222;BME280;71818;52.352;10.912;2024-01-30T02:06:22;101479.28;;;3.61;100.00
82222;BME280;71818;52.352;10.912;2024-01-30T02:08:59;101488.34;;;3.49;100.00
82222;BME280;71818;52.352;10.912;2024-01-30T02:14:33;101483.03;;;3.17;100.00
82222;BME280;71818;52.352;10.912;2024-01-30T02:17:06;101478.13;;;3.03;100.00
82222;BME280;71818;52.352;10.912;2024-01-30T02:19:34;101476.31;;;3.05;100.00
82222;BME280;71818;52.352;10.912;2024-01-30T02:22:29;101473.06;;;3.31;100.00
82222;BME280;71818;52.352;10.912;2024-01-30T02:25:00;101473.56;;;3.45;100.00
82222;BME280;71818;52.352;10.912;2024-01-30T02:27:26;101474.00;;;3.63;100.00
82222;BME280;71818;52.352;10.912;2024-01-30T02:33:13;101460.91;;;4.23;100.00
82222;BME280;71818;52.352;10.912;2024-01-30T02:35:42;101452.03;;;4.55;100.00
82222;BME280;71818;52.352;10.912;2024-01-30T02:41:47;101445.81;;;4.86;100.00
82222;BME280;71818;52.352;10.912;2024-01-30T02:44:22;101439.03;;;5.05;100.00
82222;BME280;71818;52.352;10.912;2024-01-30T02:46:51;101444.56;;;5.24;100.00
82222;BME280;71818;52.352;10.912;2024-01-30T02:49:23;101440.22;;;5.23;100.00
82222;BME280;71818;52.352;10.912;2024-01-30T02:52:12;101438.22;;;5.03;100.00
82222;BME280;71818;52.352;10.912;2024-01-30T02:54:40;101443.84;;;5.19;100.00
82222;BME280;71818;52.352;10.912;2024-01-30T02:57:09;101446.34;;;4.97;100.00
82222;BME280;71818;52.352;10.912;2024-01-30T02:59:40;101438.53;;;4.94;100.00
82222;BME280;71818;52.352;10.912;2024-01-30T03:02:17;101440.66;;;4.83;100.00
82222;BME280;71818;52.352;10.912;2024-01-30T03:07:42;101441.34;;;4.61;100.00
82222;BME280;71818;52.352;10.912;2024-01-30T03:19:51;101441.28;;;4.05;100.00
82222;BME280;71818;52.352;10.912;2024-01-30T03:22:38;101442.13;;;4.06;100.00
82222;BME280;71818;52.352;10.912;2024-01-30T03:28:28;101439.56;;;4.04;100.00
82222;BME280;71818;52.352;10.912;2024-01-30T03:34:32;101437.69;;;4.08;100.00
82222;BME280;71818;52.352;10.912;2024-01-30T03:40:50;101436.06;;;4.04;100.00
82222;BME280;71818;52.352;10.912;2024-01-30T03:47:04;101434.84;;;4.15;100.00
82222;BME280;71818;52.352;10.912;2024-01-30T03:53:14;101427.28;;;4.34;100.00
82222;BME280;71818;52.352;10.912;2024-01-30T03:59:08;101432.53;;;4.34;100.00
82222;BME280;71818;52.352;10.912;2024-01-30T04:01:57;101425.88;;;4.23;100.00
82222;BME280;71818;52.352;10.912;2024-01-30T04:04:53;101430.50;;;4.14;100.00
82222;BME280;71818;52.352;10.912;2024-01-30T04:07:46;101426.97;;;4.15;100.00
82222;BME280;71818;52.352;10.912;2024-01-30T04:27:18;101415.50;;;4.74;100.00
82222;BME280;71818;52.352;10.912;2024-01-30T04:33:19;101404.81;;;4.52;100.00
82222;BME280;71818;52.352;10.912;2024-01-30T04:36:02;101415.75;;;4.38;100.00
82222;BME280;71818;52.352;10.912;2024-01-30T04:38:54;101415.66;;;4.41;100.00
82222;BME280;71818;52.352;10.912;2024-01-30T04:41:33;101412.41;;;4.33;100.00
82222;BME280;71818;52.352;10.912;2024-01-30T04:44:18;101414.59;;;4.19;100.00
82222;BME280;71818;52.352;10.912;2024-01-30T04:46:47;101413.19;;;4.07;100.00
82222;BME280;71818;52.352;10.912;2024-01-30T04:55:59;101410.19;;;3.90;100.00
82222;BME280;71818;52.352;10.912;2024-01-30T05:01:33;101413.25;;;3.75;100.00
82222;BME280;71818;52.352;10.912;2024-01-30T05:11:06;101415.28;;;3.65;100.00
82222;BME280;71818;52.352;10.912;2024-01-30T05:14:04;101417.84;;;3.68;100.00
82222;BME280;71818;52.352;10.912;2024-01-30T05:17:10;101414.78;;;3.51;100.00
82222;BME280;71818;52.352;10.912;2024-01-30T05:20:37;101417.72;;;3.40;100.00
82222;BME280;71818;52.352;10.912;2024-01-30T05:27:21;101408.16;;;3.70;100.00
82222;BME280;71818;52.352;10.912;2024-01-30T05:38:01;101398.03;;;4.45;100.00
82222;BME280;71818;52.352;10.912;2024-01-30T05:40:58;101395.78;;;4.33;100.00
82222;BME280;71818;52.352;10.912;2024-01-30T05:51:14;101400.16;;;4.04;100.00
82222;BME280;71818;52.352;10.912;2024-01-30T05:57:36;101404.69;;;3.98;100.00
82222;BME280;71818;52.352;10.912;2024-01-30T06:07:17;101394.69;;;4.10;100.00
82222;BME280;71818;52.352;10.912;2024-01-30T06:20:18;101408.53;;;3.56;100.00
82222;BME280;71818;52.352;10.912;2024-01-30T06:30:18;101404.91;;;3.28;100.00
82222;BME280;71818;52.352;10.912;2024-01-30T06:40:22;101401.28;;;2.99;100.00
82222;BME280;71818;52.352;10.912;2024-01-30T06:46:29;101405.31;;;3.13;100.00
82222;BME280;71818;52.352;10.912;2024-01-30T06:56:32;101408.63;;;2.85;100.00
82222;BME280;71818;52.352;10.912;2024-01-30T06:59:09;101411.28;;;2.84;100.00
82222;BME280;71818;52.352;10.912;2024-01-30T07:14:12;101395.72;;;3.12;100.00
82222;BME280;71818;52.352;10.912;2024-01-30T07:17:19;101400.34;;;3.02;100.00
82222;BME280;71818;52.352;10.912;2024-01-30T07:20:30;101400.63;;;2.90;100.00
82222;BME280;71818;52.352;10.912;2024-01-30T07:23:21;101396.16;;;2.95;100.00
82222;BME280;71818;52.352;10.912;2024-01-30T07:26:06;101399.78;;;2.89;100.00
82222;BME280;71818;52.352;10.912;2024-01-30T07:28:46;101397.53;;;3.10;100.00
82222;BME280;71818;52.352;10.912;2024-01-30T07:31:35;101394.94;;;3.08;100.00
82222;BME280;71818;52.352;10.912;2024-01-30T07:34:59;101386.94;;;3.13;100.00
82222;BME280;71818;52.352;10.912;2024-01-30T07:37:53;101383.00;;;3.29;100.00
82222;BME280;71818;52.352;10.912;2024-01-30T07:40:27;101381.97;;;3.35;100.00
82222;BME280;71818;52.352;10.912;2024-01-30T07:43:09;101387.19;;;3.36;100.00
82222;BME280;71818;52.352;10.912;2024-01-30T07:45:50;101392.19;;;3.45;100.00
82222;BME280;71818;52.352;10.912;2024-01-30T07:48:56;101393.63;;;3.57;100.00
82222;BME280;71818;52.352;10.912;2024-01-30T08:01:14;101381.88;;;4.29;100.00
82222;BME280;71818;52.352;10.912;2024-01-30T08:04:19;101386.94;;;4.63;100.00
82222;BME280;71818;52.352;10.912;2024-01-30T08:10:17;101380.03;;;5.37;100.00
82222;BME280;71818;52.352;10.912;2024-01-30T08:13:30;101370.72;;;5.75;100.00
82222;BME280;71818;52.352;10.912;2024-01-30T08:23:21;101367.78;;;5.84;100.00
82222;BME280;71818;52.352;10.912;2024-01-30T08:33:19;101383.03;;;5.99;100.00
82222;BME280;71818;52.352;10.912;2024-01-30T08:36:07;101380.81;;;6.11;100.00
82222;BME280;71818;52.352;10.912;2024-01-30T08:38:35;101373.75;;;6.35;100.00
82222;BME280;71818;52.352;10.912;2024-01-30T08:44:41;101359.59;;;6.37;100.00
82222;BME280;71818;52.352;10.912;2024-01-30T08:47:47;101353.78;;;6.29;100.00
82222;BME280;71818;52.352;10.912;2024-01-30T08:52:43;101355.66;;;6.47;100.00
82222;BME280;71818;52.352;10.912;2024-01-30T08:58:34;101351.63;;;6.81;100.00
82222;BME280;71818;52.352;10.912;2024-01-30T09:01:25;101353.78;;;6.93;100.00
82222;BME280;71818;52.352;10.912;2024-01-30T09:03:53;101357.00;;;7.00;100.00
82222;BME280;71818;52.352;10.912;2024-01-30T09:06:31;101358.56;;;7.04;100.00
82222;BME280;71818;52.352;10.912;2024-01-30T09:09:11;101345.06;;;7.11;100.00
82222;BME280;71818;52.352;10.912;2024-01-30T09:12:21;101349.69;;;7.27;100.00
82222;BME280;71818;52.352;10.912;2024-01-30T09:22:10;101348.00;;;7.44;100.00
82222;BME280;71818;52.352;10.912;2024-01-30T09:35:32;101338.31;;;8.20;100.00
82222;BME280;71818;52.352;10.912;2024-01-30T09:38:16;101343.19;;;8.29;100.00
82222;BME280;71818;52.352;10.912;2024-01-30T09:57:49;101334.22;;;8.51;100.00
82222;BME280;71818;52.352;10.912;2024-01-30T10:17:17;101316.31;;;9.25;100.00
82222;BME280;71818;52.352;10.912;2024-01-30T10:20:14;101310.81;;;9.45;100.00
82222;BME280;71818;52.352;10.912;2024-01-30T10:40:20;101298.47;;;10.40;100.00
82222;BME280;71818;52.352;10.912;2024-01-30T10:58:02;101305.91;;;10.50;100.00
82222;BME280;71818;52.352;10.912;2024-01-30T11:01:36;101301.94;;;10.27;100.00
82222;BME280;71818;52.352;10.912;2024-01-30T11:28:37;101289.91;;;10.19;100.00
82222;BME280;71818;52.352;10.912;2024-01-30T11:35:27;101291.38;;;10.25;100.00
82222;BME280;71818;52.352;10.912;2024-01-30T11:38:39;101281.56;;;10.11;100.00
82222;BME280;71818;52.352;10.912;2024-01-30T11:45:00;101276.56;;;10.05;100.00
82222;BME280;71818;52.352;10.912;2024-01-30T11:48:08;101268.09;;;10.14;100.00
82222;BME280;71818;52.352;10.912;2024-01-30T11:54:15;101277.13;;;10.28;100.00
82222;BME280;71818;52.352;10.912;2024-01-30T12:06:55;101265.97;;;10.05;100.00
82222;BME280;71818;52.352;10.912;2024-01-30T12:10:14;101260.47;;;9.93;100.00
82222;BME280;71818;52.352;10.912;2024-01-30T12:16:26;101258.94;;;9.88;100.00
82222;BME280;71818;52.352;10.912;2024-01-30T12:52:55;101258.28;;;9.85;100.00
82222;BME280;71818;52.352;10.912;2024-01-30T12:55:40;101245.50;;;9.92;100.00
82222;BME280;71818;52.352;10.912;2024-01-30T13:01:26;101243.28;;;10.15;100.00
82222;BME280;71818;52.352;10.912;2024-01-30T13:04:11;101243.28;;;10.15;100.00
82222;BME280;71818;52.352;10.912;2024-01-30T13:09:54;101233.19;;;10.06;100.00
82222;BME280;71818;52.352;10.912;2024-01-30T13:15:58;101231.91;;;9.98;100.00
82222;BME280;71818;52.352;10.912;2024-01-30T13:18:31;101237.72;;;9.88;100.00
82222;BME280;71818;52.352;10.912;2024-01-30T13:21:24;101238.19;;;9.81;100.00
82222;BME280;71818;52.352;10.912;2024-01-30T13:23:52;101241.50;;;9.84;100.00
82222;BME280;71818;52.352;10.912;2024-01-30T13:27:01;101260.00;;;9.86;100.00
82222;BME280;71818;52.352;10.912;2024-01-30T13:29:33;101248.44;;;9.71;100.00
82222;BME280;71818;52.352;10.912;2024-01-30T13:32:01;101255.94;;;9.79;100.00
82222;BME280;71818;52.352;10.912;2024-01-30T13:44:41;101256.66;;;9.67;100.00
82222;BME280;71818;52.352;10.912;2024-01-30T13:47:31;101258.69;;;9.62;100.00
82222;BME280;71818;52.352;10.912;2024-01-30T13:50:26;101248.25;;;9.58;100.00
82222;BME280;71818;52.352;10.912;2024-01-30T13:53:26;101250.31;;;9.53;100.00
82222;BME280;71818;52.352;10.912;2024-01-30T13:59:25;101249.09;;;9.43;100.00
82222;BME280;71818;52.352;10.912;2024-01-30T14:01:59;101251.13;;;9.38;100.00
82222;BME280;71818;52.352;10.912;2024-01-30T14:05:14;101251.22;;;9.37;100.00
82222;BME280;71818;52.352;10.912;2024-01-30T14:11:06;101270.00;;;9.32;100.00
82222;BME280;71818;52.352;10.912;2024-01-30T14:29:47;101279.75;;;9.32;100.00
82222;BME280;71818;52.352;10.912;2024-01-30T14:35:25;101281.88;;;9.25;100.00
82222;BME280;71818;52.352;10.912;2024-01-30T14:38:33;101286.84;;;9.31;100.00
82222;BME280;71818;52.352;10.912;2024-01-30T14:41:46;101287.09;;;9.26;100.00
82222;BME280;71818;52.352;10.912;2024-01-30T14:44:33;101284.53;;;9.25;100.00
82222;BME280;71818;52.352;10.912;2024-01-30T14:53:45;101274.34;;;9.33;100.00
82222;BME280;71818;52.352;10.912;2024-01-30T14:57:07;101273.41;;;9.34;100.00
82222;BME280;71818;52.352;10.912;2024-01-30T14:59:37;101276.16;;;9.33;100.00
82222;BME280;71818;52.352;10.912;2024-01-30T15:02:19;101279.66;;;9.33;100.00
82222;BME280;71818;52.352;10.912;2024-01-30T15:05:08;101281.63;;;9.29;100.00
82222;BME280;71818;52.352;10.912;2024-01-30T15:07:43;101289.91;;;9.23;100.00
82222;BME280;71818;52.352;10.912;2024-01-30T15:10:09;101287.25;;;9.23;100.00
82222;BME280;71818;52.352;10.912;2024-01-30T15:12:42;101281.41;;;9.17;100.00
82222;BME280;71818;52.352;10.912;2024-01-30T15:15:11;101285.94;;;9.15;100.00
82222;BME280;71818;52.352;10.912;2024-01-30T15:17:45;101287.66;;;9.16;100.00
82222;BME280;71818;52.352;10.912;2024-01-30T15:20:10;101273.81;;;9.11;100.00
82222;BME280;71818;52.352;10.912;2024-01-30T15:22:35;101274.06;;;9.06;100.00
82222;BME280;71818;52.352;10.912;2024-01-30T15:25:01;101278.31;;;9.09;100.00
82222;BME280;71818;52.352;10.912;2024-01-30T15:30:28;101274.59;;;8.95;100.00
82222;BME280;71818;52.352;10.912;2024-01-30T15:33:02;101273.81;;;8.93;100.00
82222;BME280;71818;52.352;10.912;2024-01-30T15:35:51;101285.81;;;8.83;100.00
82222;BME280;71818;52.352;10.912;2024-01-30T15:41:45;101296.03;;;8.74;100.00
82222;BME280;71818;52.352;10.912;2024-01-30T15:44:22;101300.94;;;8.81;100.00
82222;BME280;71818;52.352;10.912;2024-01-30T15:47:11;101296.34;;;8.85;100.00
82222;BME280;71818;52.352;10.912;2024-01-30T15:49:44;101297.75;;;8.75;100.00
82222;BME280;71818;52.352;10.912;2024-01-30T15:52:10;101295.56;;;8.65;100.00
82222;BME280;71818;52.352;10.912;2024-01-30T15:54:40;101297.34;;;8.65;100.00
82222;BME280;71818;52.352;10.912;2024-01-30T15:57:05;101296.84;;;8.57;100.00
82222;BME280;71818;52.352;10.912;2024-01-30T15:59:30;101301.38;;;8.55;100.00
82222;BME280;71818;52.352;10.912;2024-01-30T16:01:56;101295.63;;;8.64;100.00
82222;BME280;71818;52.352;10.912;2024-01-30T16:04:21;101302.56;;;8.66;100.00
82222;BME280;71818;52.352;10.912;2024-01-30T16:06:48;101300.59;;;8.70;100.00
82222;BME280;71818;52.352;10.912;2024-01-30T16:09:14;101299.91;;;8.66;100.00
82222;BME280;71818;52.352;10.912;2024-01-30T16:11:40;101303.41;;;8.67;100.00
82222;BME280;71818;52.352;10.912;2024-01-30T16:14:06;101299.84;;;8.68;100.00
82222;BME280;71818;52.352;10.912;2024-01-30T16:16:32;101298.91;;;8.69;100.00
82222;BME280;71818;52.352;10.912;2024-01-30T16:18:58;101300.16;;;8.62;100.00
82222;BME280;71818;52.352;10.912;2024-01-30T16:21:24;101294.09;;;8.60;100.00
82222;BME280;71818;52.352;10.912;2024-01-30T16:23:49;101307.44;;;8.57;100.00
82222;BME280;71818;52.352;10.912;2024-01-30T16:26:15;101305.66;;;8.57;100.00
82222;BME280;71818;52.352;10.912;2024-01-30T16:28:41;101311.03;;;8.56;100.00
82222;BME280;71818;52.352;10.912;2024-01-30T16:31:07;101307.31;;;8.60;100.00
82222;BME280;71818;52.352;10.912;2024-01-30T16:33:32;101317.25;;;8.55;100.00
82222;BME280;71818;52.352;10.912;2024-01-30T16:35:57;101321.63;;;8.56;100.00
82222;BME280;71818;52.352;10.912;2024-01-30T16:38:23;101319.13;;;8.53;100.00
82222;BME280;71818;52.352;10.912;2024-01-30T16:40:48;101314.53;;;8.56;100.00
82222;BME280;71818;52.352;10.912;2024-01-30T16:43:15;101316.81;;;8.64;100.00
82222;BME280;71818;52.352;10.912;2024-01-30T16:45:40;101320.31;;;8.64;100.00
82222;BME280;71818;52.352;10.912;2024-01-30T16:48:06;101323.81;;;8.65;100.00
82222;BME280;71818;52.352;10.912;2024-01-30T16:50:31;101329.19;;;8.63;100.00
82222;BME280;71818;52.352;10.912;2024-01-30T16:52:56;101323.66;;;8.68;100.00
82222;BME280;71818;52.352;10.912;2024-01-30T16:55:22;101324.00;;;8.79;100.00
82222;BME280;71818;52.352;10.912;2024-01-30T16:57:48;101332.63;;;8.83;100.00
82222;BME280;71818;52.352;10.912;2024-01-30T17:00:13;101329.28;;;8.79;100.00
82222;BME280;71818;52.352;10.912;2024-01-30T17:02:40;101330.06;;;8.81;100.00
82222;BME280;71818;52.352;10.912;2024-01-30T17:05:05;101336.06;;;8.85;100.00
82222;BME280;71818;52.352;10.912;2024-01-30T17:07:31;101342.59;;;8.78;100.00
82222;BME280;71818;52.352;10.912;2024-01-30T17:10:00;101345.78;;;8.84;100.00
82222;BME280;71818;52.352;10.912;2024-01-30T17:12:26;101347.50;;;8.85;100.00
82222;BME280;71818;52.352;10.912;2024-01-30T17:14:51;101345.56;;;8.89;100.00
82222;BME280;71818;52.352;10.912;2024-01-30T17:17:16;101338.84;;;8.82;100.00
82222;BME280;71818;52.352;10.912;2024-01-30T17:19:42;101342.84;;;8.90;100.00
82222;BME280;71818;52.352;10.912;2024-01-30T17:22:08;101342.78;;;8.92;100.00
82222;BME280;71818;52.352;10.912;2024-01-30T17:24:33;101354.91;;;8.96;100.00
82222;BME280;71818;52.352;10.912;2024-01-30T17:26:58;101350.22;;;8.84;100.00
82222;BME280;71818;52.352;10.912;2024-01-30T17:29:24;101349.28;;;8.85;100.00
82222;BME280;71818;52.352;10.912;2024-01-30T17:31:50;101349.84;;;8.91;100.00
82222;BME280;71818;52.352;10.912;2024-01-30T17:34:16;101357.22;;;8.85;100.00
82222;BME280;71818;52.352;10.912;2024-01-30T17:36:42;101358.09;;;8.85;100.00
82222;BME280;71818;52.352;10.912;2024-01-30T17:39:07;101357.47;;;8.80;100.00
82222;BME280;71818;52.352;10.912;2024-01-30T17:41:33;101358.25;;;8.82;100.00
82222;BME280;71818;52.352;10.912;2024-01-30T17:43:58;101366.59;;;8.92;100.00
82222;BME280;71818;52.352;10.912;2024-01-30T17:46:24;101360.44;;;8.91;100.00
82222;BME280;71818;52.352;10.912;2024-01-30T17:48:49;101365.66;;;8.93;100.00
82222;BME280;71818;52.352;10.912;2024-01-30T17:51:15;101366.13;;;9.01;100.00
82222;BME280;71818;52.352;10.912;2024-01-30T17:53:40;101360.81;;;9.01;100.00
82222;BME280;71818;52.352;10.912;2024-01-30T17:56:06;101363.09;;;8.91;100.00
82222;BME280;71818;52.352;10.912;2024-01-30T17:58:31;101366.88;;;8.86;100.00
82222;BME280;71818;52.352;10.912;2024-01-30T18:00:57;101366.88;;;8.86;100.00
82222;BME280;71818;52.352;10.912;2024-01-30T18:03:25;101371.81;;;8.93;100.00
82222;BME280;71818;52.352;10.912;2024-01-30T18:05:50;101369.78;;;8.81;100.00
82222;BME280;71818;52.352;10.912;2024-01-30T18:08:16;101364.88;;;8.74;100.00
82222;BME280;71818;52.352;10.912;2024-01-30T18:10:42;101368.06;;;8.80;100.00
82222;BME280;71818;52.352;10.912;2024-01-30T18:13:07;101368.59;;;8.69;100.00
82222;BME280;71818;52.352;10.912;2024-01-30T18:15:34;101367.19;;;8.62;100.00
82222;BME280;71818;52.352;10.912;2024-01-30T18:18:01;101374.56;;;8.56;100.00
82222;BME280;71818;52.352;10.912;2024-01-30T18:20:26;101376.25;;;8.57;100.00
82222;BME280;71818;52.352;10.912;2024-01-30T18:22:51;101376.50;;;8.52;100.00
82222;BME280;71818;52.352;10.912;2024-01-30T18:25:17;101375.22;;;8.42;100.00
82222;BME280;71818;52.352;10.912;2024-01-30T18:27:42;101373.31;;;8.46;100.00
82222;BME280;71818;52.352;10.912;2024-01-30T18:30:09;101380.47;;;8.44;100.00
82222;BME280;71818;52.352;10.912;2024-01-30T18:32:34;101376.81;;;8.46;100.00
82222;BME280;71818;52.352;10.912;2024-01-30T18:35:00;101378.28;;;8.33;100.00
82222;BME280;71818;52.352;10.912;2024-01-30T18:37:26;101376.06;;;8.24;100.00
82222;BME280;71818;52.352;10.912;2024-01-30T18:39:51;101382.03;;;8.29;100.00
82222;BME280;71818;52.352;10.912;2024-01-30T18:42:17;101390.53;;;8.17;100.00
82222;BME280;71818;52.352;10.912;2024-01-30T18:44:43;101375.50;;;8.17;100.00
82222;BME280;71818;52.352;10.912;2024-01-30T18:47:08;101374.34;;;8.23;100.00
82222;BME280;71818;52.352;10.912;2024-01-30T18:49:34;101381.34;;;8.24;100.00
82222;BME280;71818;52.352;10.912;2024-01-30T18:51:59;101376.94;;;8.24;100.00
82222;BME280;71818;52.352;10.912;2024-01-30T18:54:25;101372.22;;;8.12;100.00
82222;BME280;71818;52.352;10.912;2024-01-30T18:56:50;101373.94;;;8.13;100.00
82222;BME280;71818;52.352;10.912;2024-01-30T18:59:16;101378.44;;;8.11;100.00
82222;BME280;71818;52.352;10.912;2024-01-30T19:01:44;101393.66;;;8.06;100.00
82222;BME280;71818;52.352;10.912;2024-01-30T19:04:11;101389.66;;;8.16;100.00
82222;BME280;71818;52.352;10.912;2024-01-30T19:06:36;101383.94;;;8.25;100.00
82222;BME280;71818;52.352;10.912;2024-01-30T19:09:02;101392.88;;;8.23;100.00
82222;BME280;71818;52.352;10.912;2024-01-30T19:11:32;101389.75;;;8.15;100.00
82222;BME280;71818;52.352;10.912;2024-01-30T19:13:58;101393.25;;;8.15;100.00
82222;BME280;71818;52.352;10.912;2024-01-30T19:16:23;101392.66;;;8.08;100.00
82222;BME280;71818;52.352;10.912;2024-01-30T19:18:49;101390.22;;;8.04;100.00
82222;BME280;71818;52.352;10.912;2024-01-30T19:21:15;101392.66;;;8.08;100.00
82222;BME280;71818;52.352;10.912;2024-01-30T19:23:40;101385.66;;;8.07;100.00
82222;BME280;71818;52.352;10.912;2024-01-30T19:26:07;101392.47;;;8.13;100.00
82222;BME280;71818;52.352;10.912;2024-01-30T19:28:32;101377.16;;;8.20;100.00
82222;BME280;71818;52.352;10.912;2024-01-30T19:30:57;101401.09;;;8.17;100.00
82222;BME280;71818;52.352;10.912;2024-01-30T19:33:26;101395.53;;;8.23;100.00
82222;BME280;71818;52.352;10.912;2024-01-30T19:35:51;101403.25;;;8.27;100.00
82222;BME280;71818;52.352;10.912;2024-01-30T19:38:16;101414.91;;;8.23;100.00
82222;BME280;71818;52.352;10.912;2024-01-30T19:40:42;101419.06;;;8.29;100.00
82222;BME280;71818;52.352;10.912;2024-01-30T19:43:07;101419.91;;;8.29;100.00
82222;BME280;71818;52.352;10.912;2024-01-30T19:45:33;101430.31;;;8.34;100.00
82222;BME280;71818;52.352;10.912;2024-01-30T19:47:59;101438.94;;;8.37;100.00
82222;BME280;71818;52.352;10.912;2024-01-30T19:50:24;101440.50;;;8.42;100.00
82222;BME280;71818;52.352;10.912;2024-01-30T19:52:50;101448.41;;;8.43;100.00
82222;BME280;71818;52.352;10.912;2024-01-30T19:55:15;101450.06;;;8.46;100.00
82222;BME280;71818;52.352;10.912;2024-01-30T19:57:41;101450.97;;;8.45;100.00
82222;BME280;71818;52.352;10.912;2024-01-30T20:00:08;101446.63;;;8.44;100.00
82222;BME280;71818;52.352;10.912;2024-01-30T20:02:38;101444.44;;;8.33;100.00
82222;BME280;71818;52.352;10.912;2024-01-30T20:05:04;101442.56;;;8.16;100.00
82222;BME280;71818;52.352;10.912;2024-01-30T20:07:30;101444.19;;;8.00;100.00
82222;BME280;71818;52.352;10.912;2024-01-30T20:09:55;101453.69;;;7.85;100.00
82222;BME280;71818;52.352;10.912;2024-01-30T20:12:20;101467.41;;;7.93;100.00
82222;BME280;71818;52.352;10.912;2024-01-30T20:14:46;101469.03;;;7.96;100.00
82222;BME280;71818;52.352;10.912;2024-01-30T20:17:11;101469.91;;;7.96;100.00
82222;BME280;71818;52.352;10.912;2024-01-30T20:19:39;101462.56;;;8.03;100.00
82222;BME280;71818;52.352;10.912;2024-01-30T20:22:05;101470.50;;;8.03;100.00
82222;BME280;71818;52.352;10.912;2024-01-30T20:24:31;101458.34;;;7.99;100.00
82222;BME280;71818;52.352;10.912;2024-01-30T20:26:56;101463.75;;;7.96;100.00
82222;BME280;71818;52.352;10.912;2024-01-30T20:29:21;101476.69;;;7.83;100.00
82222;BME280;71818;52.352;10.912;2024-01-30T20:31:47;101480.28;;;7.80;100.00
82222;BME280;71818;52.352;10.912;2024-01-30T20:34:12;101482.88;;;7.62;100.00
82222;BME280;71818;52.352;10.912;2024-01-30T20:36:41;101486.53;;;7.59;100.00
82222;BME280;71818;52.352;10.912;2024-01-30T20:39:09;101476.41;;;7.48;100.00
82222;BME280;71818;52.352;10.912;2024-01-30T20:41:38;101474.16;;;7.60;100.00
82222;BME280;71818;52.352;10.912;2024-01-30T20:44:05;101481.75;;;7.47;100.00
82222;BME280;71818;52.352;10.912;2024-01-30T20:46:32;101476.75;;;7.41;100.00
82222;BME280;71818;52.352;10.912;2024-01-30T20:48:58;101479.53;;;7.38;100.00
82222;BME280;71818;52.352;10.912;2024-01-30T20:51:23;101482.81;;;7.43;100.00
82222;BME280;71818;52.352;10.912;2024-01-30T20:53:48;101479.16;;;7.25;100.00
82222;BME280;71818;52.352;10.912;2024-01-30T20:56:14;101484.44;;;7.25;100.00
82222;BME280;71818;52.352;10.912;2024-01-30T20:58:39;101484.81;;;7.16;100.00
82222;BME280;71818;52.352;10.912;2024-01-30T21:01:05;101493.78;;;7.12;100.00
82222;BME280;71818;52.352;10.912;2024-01-30T21:03:30;101486.44;;;6.98;100.00
82222;BME280;71818;52.352;10.912;2024-01-30T21:05:57;101500.13;;;6.86;100.00
82222;BME280;71818;52.352;10.912;2024-01-30T21:08:23;101490.31;;;6.89;100.00